Big Bear Station Historical Data
Daily Summary for January 31, 2019 Units:  English    Metric   Both
Next Day »
Daily Weekly Monthly Yearly Custom
  High: Low: Average:
Temperature: 46.0 °F 27.5 °F 33.7 °F
Dew Point: 37.5 °F 25.4 °F 30.4 °F
Humidity: 98% 67% 88%
Wind Speed: 5.3mph 0.0mph 0.4mph
Wind Gust: -999.0mph - -
Wind- - SW
Pressure: 23.42 in 23.34 in -
Precipitation: 0.17 in    
Historical Graphs
 
 
Tabular Data for January 31, 2019
Time Temperature Dew Point Pressure Wind Wind Speed Wind Gust Humidity Rainfall Rate (Hourly)
00:03 28.2 °F 25.9 °F 23.42 in Calm   -999.0 mph 91% 0.00 in
00:19 28.2 °F 25.9 °F 23.41 in Calm   -999.0 mph 91% 0.00 in
00:34 28.2 °F 26.2 °F 23.41 in Calm   -999.0 mph 92% 0.00 in
00:49 27.9 °F 25.9 °F 23.41 in Calm   -999.0 mph 92% 0.00 in
01:04 27.9 °F 25.9 °F 23.41 in Calm   -999.0 mph 92% 0.00 in
01:20 28.2 °F 26.4 °F 23.41 in Calm   -999.0 mph 93% 0.00 in
01:35 28.2 °F 26.2 °F 23.41 in Calm   -999.0 mph 92% 0.00 in
01:50 28.0 °F 26.0 °F 23.41 in Calm   -999.0 mph 92% 0.00 in
02:05 28.0 °F 26.0 °F 23.40 in Calm   -999.0 mph 92% 0.00 in
02:20 27.9 °F 25.9 °F 23.40 in Calm   -999.0 mph 92% 0.00 in
02:36 28.0 °F 26.0 °F 23.40 in Calm   -999.0 mph 92% 0.00 in
02:51 27.5 °F 25.5 °F 23.40 in Calm   -999.0 mph 92% 0.00 in
03:06 27.5 °F 25.5 °F 23.40 in Calm   -999.0 mph 92% 0.00 in
03:21 28.4 °F 26.4 °F 23.40 in Calm   -999.0 mph 92% 0.00 in
03:36 28.9 °F 26.9 °F 23.40 in Calm   -999.0 mph 92% 0.00 in
03:52 28.9 °F 26.9 °F 23.40 in Calm   -999.0 mph 92% 0.00 in
04:07 29.5 °F 27.2 °F 23.39 in Calm   -999.0 mph 91% 0.00 in
04:22 29.5 °F 26.9 °F 23.40 in Calm   -999.0 mph 90% 0.00 in
04:37 29.3 °F 26.7 °F 23.40 in Calm   -999.0 mph 90% 0.00 in
04:52 28.8 °F 26.2 °F 23.39 in Calm   -999.0 mph 90% 0.00 in
05:08 28.4 °F 26.1 °F 23.39 in Calm   -999.0 mph 91% 0.00 in
05:23 28.4 °F 26.4 °F 23.39 in Calm   -999.0 mph 92% 0.00 in
05:38 28.2 °F 25.9 °F 23.39 in Calm   -999.0 mph 91% 0.00 in
05:53 27.7 °F 25.4 °F 23.38 in Calm   -999.0 mph 91% 0.00 in
06:09 27.5 °F 25.5 °F 23.38 in Calm   -999.0 mph 92% 0.00 in
06:24 27.9 °F 26.1 °F 23.39 in Calm   -999.0 mph 93% 0.00 in
06:39 28.9 °F 26.1 °F 23.38 in Calm   -999.0 mph 89% 0.00 in
06:54 29.7 °F 26.6 °F 23.39 in Calm   -999.0 mph 88% 0.00 in
07:10 31.6 °F 27.6 °F 23.39 in Calm   -999.0 mph 85% 0.00 in
07:25 31.3 °F 27.9 °F 23.39 in Calm   -999.0 mph 87% 0.00 in
07:40 32.7 °F 28.4 °F 23.40 in Calm   -999.0 mph 84% 0.00 in
07:56 33.4 °F 29.1 °F 23.40 in Calm   -999.0 mph 84% 0.00 in
08:11 34.3 °F 30.0 °F 23.40 in Calm   -999.0 mph 84% 0.00 in
08:26 36.9 °F 31.3 °F 23.39 in Calm   -999.0 mph 80% 0.00 in
08:41 38.7 °F 31.5 °F 23.40 in Calm   -999.0 mph 75% 0.00 in
08:57 39.6 °F 31.3 °F 23.39 in NNE 2.2 mph -999.0 mph 72% 0.00 in
09:12 40.6 °F 31.6 °F 23.39 in NNW 5.3 mph -999.0 mph 70% 0.00 in
09:27 42.1 °F 32.7 °F 23.38 in NW 2.2 mph -999.0 mph 69% 0.00 in
09:42 43.0 °F 32.8 °F 23.39 in NW 4.7 mph -999.0 mph 67% 0.00 in
09:58 43.9 °F 34.0 °F 23.39 in NNW 3.7 mph -999.0 mph 68% 0.00 in
10:13 43.7 °F 34.2 °F 23.40 in West 2.7 mph -999.0 mph 69% 0.00 in
10:29 42.8 °F 35.1 °F 23.40 in NNE 4.2 mph -999.0 mph 74% 0.00 in
10:44 43.5 °F 34.7 °F 23.40 in WSW 2.7 mph -999.0 mph 71% 0.00 in
10:59 44.6 °F 34.3 °F 23.40 in SSW 2.7 mph -999.0 mph 67% 0.00 in
11:14 44.2 °F 33.9 °F 23.39 in SSW 2.7 mph -999.0 mph 67% 0.00 in
11:29 44.8 °F 34.5 °F 23.39 in Calm   -999.0 mph 67% 0.00 in
11:45 44.4 °F 34.5 °F 23.39 in Calm   -999.0 mph 68% 0.00 in
12:00 44.1 °F 35.3 °F 23.38 in Calm   -999.0 mph 71% 0.00 in
12:15 45.1 °F 37.0 °F 23.36 in Calm   -999.0 mph 73% 0.00 in
12:30 44.4 °F 37.3 °F 23.36 in Calm   -999.0 mph 76% 0.00 in
12:45 46.0 °F 37.5 °F 23.35 in SW 4.7 mph -999.0 mph 72% 0.00 in
13:01 43.0 °F 36.6 °F 23.34 in Calm   -999.0 mph 78% 0.00 in
13:16 41.0 °F 36.8 °F 23.36 in Calm   -999.0 mph 85% 0.00 in
13:31 40.1 °F 36.3 °F 23.35 in Calm   -999.0 mph 86% 0.00 in
13:46 40.3 °F 37.0 °F 23.35 in Calm   -999.0 mph 88% 0.00 in
14:02 39.4 °F 36.1 °F 23.35 in Calm   -999.0 mph 88% 0.00 in
14:17 38.1 °F 35.1 °F 23.35 in Calm   -999.0 mph 89% 0.00 in
14:32 36.7 °F 34.0 °F 23.35 in Calm   -999.0 mph 90% 0.00 in
14:47 34.5 °F 32.1 °F 23.35 in Calm   -999.0 mph 91% 0.00 in
15:02 34.3 °F 31.9 °F 23.35 in Calm   -999.0 mph 91% 0.00 in
15:18 34.3 °F 32.2 °F 23.35 in Calm   -999.0 mph 92% 0.00 in
15:33 34.2 °F 32.1 °F 23.35 in Calm   -999.0 mph 92% 0.00 in
15:48 34.2 °F 32.1 °F 23.34 in Calm   -999.0 mph 92% 0.00 in
16:03 34.3 °F 32.5 °F 23.35 in Calm   -999.0 mph 93% 0.00 in
16:18 34.5 °F 32.7 °F 23.34 in Calm   -999.0 mph 93% 0.00 in
16:34 34.3 °F 32.5 °F 23.35 in Calm   -999.0 mph 93% 0.00 in
16:49 33.8 °F 32.0 °F 23.34 in Calm   -999.0 mph 93% 0.00 in
17:04 33.1 °F 31.3 °F 23.34 in Calm   -999.0 mph 93% 0.00 in
17:19 32.7 °F 30.9 °F 23.34 in Calm   -999.0 mph 93% 0.00 in
17:34 32.5 °F 31.0 °F 23.34 in Calm   -999.0 mph 94% 0.00 in
17:50 32.5 °F 31.2 °F 23.35 in Calm   -999.0 mph 95% 0.00 in
18:05 32.7 °F 31.7 °F 23.35 in Calm   -999.0 mph 96% 0.00 in
18:20 32.7 °F 31.7 °F 23.36 in Calm   -999.0 mph 96% 0.00 in
18:35 32.7 °F 31.7 °F 23.36 in Calm   -999.0 mph 96% 0.00 in
18:50 32.5 °F 31.5 °F 23.36 in Calm   -999.0 mph 96% 0.00 in
19:06 32.5 °F 31.5 °F 23.36 in Calm   -999.0 mph 96% 0.00 in
19:21 32.4 °F 31.4 °F 23.36 in Calm   -999.0 mph 96% 0.00 in
19:36 32.4 °F 31.4 °F 23.37 in Calm   -999.0 mph 96% 0.00 in
19:51 32.2 °F 31.2 °F 23.36 in Calm   -999.0 mph 96% 0.00 in
20:06 32.0 °F 31.0 °F 23.36 in Calm   -999.0 mph 96% 0.00 in
20:22 31.6 °F 30.6 °F 23.36 in Calm   -999.0 mph 96% 0.00 in
20:37 31.3 °F 30.5 °F 23.37 in Calm   -999.0 mph 97% 0.00 in
20:52 31.1 °F 30.3 °F 23.37 in Calm   -999.0 mph 97% 0.00 in
21:07 31.1 °F 30.3 °F 23.37 in Calm   -999.0 mph 97% 0.00 in
21:23 30.9 °F 30.4 °F 23.37 in Calm   -999.0 mph 98% 0.00 in
21:38 30.9 °F 30.4 °F 23.37 in Calm   -999.0 mph 98% 0.00 in
21:53 30.9 °F 30.4 °F 23.37 in Calm   -999.0 mph 98% 0.00 in
22:08 30.7 °F 30.2 °F 23.38 in Calm   -999.0 mph 98% 0.00 in
22:23 30.4 °F 29.9 °F 23.38 in Calm   -999.0 mph 98% 0.00 in
22:39 30.2 °F 29.7 °F 23.39 in Calm   -999.0 mph 98% 0.00 in
22:54 29.8 °F 29.3 °F 23.39 in Calm   -999.0 mph 98% 0.00 in
23:09 29.8 °F 29.3 °F 23.38 in Calm   -999.0 mph 98% 0.00 in
23:24 29.7 °F 29.2 °F 23.39 in Calm   -999.0 mph 98% 0.00 in
23:39 29.7 °F 29.2 °F 23.39 in Calm   -999.0 mph 98% 0.00 in
23:55 29.5 °F 29.0 °F 23.39 in Calm   -999.0 mph 98% 0.00 in
Big Bear CA Weather